Aérodrome :
LOGIN :

S'inscrire | Disclaimer

   EN    FR    IT 

 










Légende :    VFR   VFR Marginal   IFR   IFR Intensif   IFR Très Intensif
Visi : 
Plafond : 
>= 8 km
>= 3000ft
5 à 8 km
1000 à 3000 ft
1500m à 5 km
500 à 1000 ft
800 à 1500m
200 à 500 ft
< 800m
< 200 ft
Symboles :   Orages  Brouillard  Fortes neiges  Fortes précipitations  Vent > 20 kt
SIGMETs :   Divers  Orages  Givrage  Turbulence  Onde Orograph.  Cendres Volcan.






- Altitude de l'aérodrome : 1079 ft


ETIK - Illesheim Air Base

DERNIER METAR :
  • 210156Z AUTO 00000KT 8000 BR CLR 09/09 A2993 RMK AO2 SLP134 T00880088 $

METARs EXPIRÉS :
  • 210056Z AUTO 00000KT 9999 CLR 10/10 A2991 RMK AO2 SLP127 T00970097 $
  • 202356Z AUTO 23003KT 9999 FEW120 12/12 A2992 RMK AO2 SLP131 T01180118 10132 20092 53017 $

TAF TAF ETIK
Valide du 20 à 22h jusqu'au 22 à 04h UTC


202200Z 2022/2204 VRB06KT 9999 FEW040 BKN130 QNH2984INS
BECMG 2105/2106 25006KT 9999 SCT060 BKN100 QNH2988INS
BECMG 2112/2113 26009KT 9999 SCT030 BKN080 QNH3005INS
BECMG 2118/2119 31006KT 8000 BR SCT040 OVC050 QNH3012INS TX18/2113Z TN09/2103Z



MET'MAP, la Météo Aéronautique d'un coup d'oeil ! - Copyright ORBIFLY Décembre 2007 - Disclaimer

ORBIFLY MET'MAP TEAM :

Programmation & Développement : Alexandra Zaïnal
Conception & Développement : Baudouin d'Aumeries
Co-Programmation & Développement : Marc-Olivier Méhu
Soutien technique & logistique : Manuel Goepfert

Contact : metmap@orbifly.com




SOURCES & CREDITS :

   NOAA